EPRZ/RZE METAR and TAF weather

Enter ICAO airport designator
Station Type Date Time Source
EPRZ METAR 2020/04/10 19:00 UTC NOAA

EPRZ 101900Z 31003KT 280V060 CAVOK 07/M03 Q1022


Station Type Date Time Source
EPRZ Decoded METAR 2020/04/10 19:00 UTC NOAA

Rzeszow-Jasionka, Poland (EPRZ) 50-06N 022-03E 202M
Apr 10, 2020 - 03:00 PM EDT / 2020.04.10 1900 UTC
Wind: from the NW (310 degrees) at 3 MPH (3 KT) (direction variable):0
Visibility: greater than 7 mile(s):0
Temperature: 44 F (7 C)
Dew Point: 26 F (-3 C)
Relative Humidity: 48%
Pressure (altimeter): 30.18 in. Hg (1022 hPa)
ob: EPRZ 101900Z 31003KT 280V060 CAVOK 07/M03 Q1022
cycle: 19

Station Type Date Time Source
EPRZ TAF 2020/04/10 18:37 UTC NOAA

TAF EPRZ 101730Z 1018/1118 VRB02KT CAVOK
BECMG 1105/1108 02010KT

Example: see airport list